sensor_id;sensor_type;location;lat;lon;timestamp;P1;durP1;ratioP1;P2;durP2;ratioP2
65275;SDS011;51875;49.994;14.052;2023-02-18T00:00:21;3.10;;;2.25;;
65275;SDS011;51875;49.994;14.052;2023-02-18T00:01:57;3.28;;;2.05;;
65275;SDS011;51875;49.994;14.052;2023-02-18T00:03:13;2.47;;;1.90;;
65275;SDS011;51875;49.994;14.052;2023-02-18T00:04:29;2.75;;;1.85;;
65275;SDS011;51875;49.994;14.052;2023-02-18T00:05:45;3.45;;;2.00;;
65275;SDS011;51875;49.994;14.052;2023-02-18T00:07:00;2.83;;;1.90;;
65275;SDS011;51875;49.994;14.052;2023-02-18T00:08:16;2.03;;;1.77;;
65275;SDS011;51875;49.994;14.052;2023-02-18T00:09:32;3.13;;;1.98;;
65275;SDS011;51875;49.994;14.052;2023-02-18T00:10:47;2.50;;;1.52;;
65275;SDS011;51875;49.994;14.052;2023-02-18T00:12:03;2.50;;;1.80;;
65275;SDS011;51875;49.994;14.052;2023-02-18T00:13:19;3.58;;;2.10;;
65275;SDS011;51875;49.994;14.052;2023-02-18T00:14:34;2.97;;;1.90;;
65275;SDS011;51875;49.994;14.052;2023-02-18T00:15:50;2.83;;;2.10;;
65275;SDS011;51875;49.994;14.052;2023-02-18T00:17:05;6.72;;;2.35;;
65275;SDS011;51875;49.994;14.052;2023-02-18T00:18:21;2.55;;;1.90;;
65275;SDS011;51875;49.994;14.052;2023-02-18T00:19:37;2.50;;;1.77;;
65275;SDS011;51875;49.994;14.052;2023-02-18T00:20:52;2.40;;;1.70;;
65275;SDS011;51875;49.994;14.052;2023-02-18T00:22:08;2.35;;;1.92;;
65275;SDS011;51875;49.994;14.052;2023-02-18T00:23:24;2.42;;;1.83;;
65275;SDS011;51875;49.994;14.052;2023-02-18T00:24:39;2.28;;;1.63;;
65275;SDS011;51875;49.994;14.052;2023-02-18T00:26:12;2.85;;;2.00;;
65275;SDS011;51875;49.994;14.052;2023-02-18T00:27:29;2.80;;;2.00;;
65275;SDS011;51875;49.994;14.052;2023-02-18T00:28:45;2.08;;;1.65;;
65275;SDS011;51875;49.994;14.052;2023-02-18T00:30:06;2.45;;;1.60;;
65275;SDS011;51875;49.994;14.052;2023-02-18T00:31:23;2.58;;;1.90;;
65275;SDS011;51875;49.994;14.052;2023-02-18T00:32:41;3.05;;;1.70;;
65275;SDS011;51875;49.994;14.052;2023-02-18T00:33:58;3.90;;;1.80;;
65275;SDS011;51875;49.994;14.052;2023-02-18T00:35:14;2.80;;;1.80;;
65275;SDS011;51875;49.994;14.052;2023-02-18T00:36:29;2.53;;;1.80;;
65275;SDS011;51875;49.994;14.052;2023-02-18T00:37:45;3.60;;;1.98;;
65275;SDS011;51875;49.994;14.052;2023-02-18T00:39:03;3.17;;;1.70;;
65275;SDS011;51875;49.994;14.052;2023-02-18T00:40:20;5.38;;;2.03;;
65275;SDS011;51875;49.994;14.052;2023-02-18T00:41:35;2.78;;;1.75;;
65275;SDS011;51875;49.994;14.052;2023-02-18T00:42:52;3.03;;;1.65;;
65275;SDS011;51875;49.994;14.052;2023-02-18T00:44:08;2.42;;;1.85;;
65275;SDS011;51875;49.994;14.052;2023-02-18T00:45:24;3.45;;;1.77;;
65275;SDS011;51875;49.994;14.052;2023-02-18T00:46:39;2.53;;;1.90;;
65275;SDS011;51875;49.994;14.052;2023-02-18T00:47:55;2.80;;;2.05;;
65275;SDS011;51875;49.994;14.052;2023-02-18T00:49:11;2.92;;;1.70;;
65275;SDS011;51875;49.994;14.052;2023-02-18T00:50:26;2.80;;;2.00;;
65275;SDS011;51875;49.994;14.052;2023-02-18T00:51:42;2.97;;;1.80;;
65275;SDS011;51875;49.994;14.052;2023-02-18T00:52:58;2.67;;;1.90;;
65275;SDS011;51875;49.994;14.052;2023-02-18T00:54:13;3.33;;;1.77;;
65275;SDS011;51875;49.994;14.052;2023-02-18T00:55:29;2.53;;;1.77;;
65275;SDS011;51875;49.994;14.052;2023-02-18T00:56:44;2.22;;;1.67;;
65275;SDS011;51875;49.994;14.052;2023-02-18T00:58:00;3.83;;;1.80;;
65275;SDS011;51875;49.994;14.052;2023-02-18T00:59:16;2.40;;;1.73;;
65275;SDS011;51875;49.994;14.052;2023-02-18T01:00:32;2.58;;;1.80;;
65275;SDS011;51875;49.994;14.052;2023-02-18T01:01:47;2.60;;;1.88;;
65275;SDS011;51875;49.994;14.052;2023-02-18T01:03:04;3.22;;;1.95;;
65275;SDS011;51875;49.994;14.052;2023-02-18T01:04:21;2.53;;;1.60;;
65275;SDS011;51875;49.994;14.052;2023-02-18T01:05:37;2.25;;;1.73;;
65275;SDS011;51875;49.994;14.052;2023-02-18T01:06:53;3.65;;;1.80;;
65275;SDS011;51875;49.994;14.052;2023-02-18T01:08:09;2.20;;;1.40;;
65275;SDS011;51875;49.994;14.052;2023-02-18T01:09:25;2.80;;;1.75;;
65275;SDS011;51875;49.994;14.052;2023-02-18T01:10:42;2.03;;;1.50;;
65275;SDS011;51875;49.994;14.052;2023-02-18T01:12:00;2.08;;;1.58;;
65275;SDS011;51875;49.994;14.052;2023-02-18T01:13:16;3.30;;;1.88;;
65275;SDS011;51875;49.994;14.052;2023-02-18T01:14:31;2.25;;;1.50;;
65275;SDS011;51875;49.994;14.052;2023-02-18T01:15:47;1.40;;;1.20;;
65275;SDS011;51875;49.994;14.052;2023-02-18T01:17:02;1.90;;;1.40;;
65275;SDS011;51875;49.994;14.052;2023-02-18T01:18:19;1.63;;;1.40;;
65275;SDS011;51875;49.994;14.052;2023-02-18T01:19:34;2.30;;;1.30;;
65275;SDS011;51875;49.994;14.052;2023-02-18T01:20:50;2.22;;;1.60;;
65275;SDS011;51875;49.994;14.052;2023-02-18T01:22:05;2.90;;;1.45;;
65275;SDS011;51875;49.994;14.052;2023-02-18T01:23:21;1.70;;;1.35;;
65275;SDS011;51875;49.994;14.052;2023-02-18T01:24:37;3.50;;;1.48;;
65275;SDS011;51875;49.994;14.052;2023-02-18T01:25:53;3.50;;;1.50;;
65275;SDS011;51875;49.994;14.052;2023-02-18T01:27:08;2.72;;;1.40;;
65275;SDS011;51875;49.994;14.052;2023-02-18T01:28:24;1.42;;;1.15;;
65275;SDS011;51875;49.994;14.052;2023-02-18T01:29:40;2.00;;;1.38;;
65275;SDS011;51875;49.994;14.052;2023-02-18T01:30:55;1.77;;;1.33;;
65275;SDS011;51875;49.994;14.052;2023-02-18T01:32:11;2.55;;;1.45;;
65275;SDS011;51875;49.994;14.052;2023-02-18T01:33:27;2.25;;;1.60;;
65275;SDS011;51875;49.994;14.052;2023-02-18T01:34:42;2.38;;;1.65;;
65275;SDS011;51875;49.994;14.052;2023-02-18T01:35:58;1.77;;;1.58;;
65275;SDS011;51875;49.994;14.052;2023-02-18T01:37:13;2.30;;;1.55;;
65275;SDS011;51875;49.994;14.052;2023-02-18T01:38:29;2.20;;;1.45;;
65275;SDS011;51875;49.994;14.052;2023-02-18T01:39:45;4.68;;;1.33;;
65275;SDS011;51875;49.994;14.052;2023-02-18T01:41:01;2.97;;;1.40;;
65275;SDS011;51875;49.994;14.052;2023-02-18T01:42:18;1.73;;;1.30;;
65275;SDS011;51875;49.994;14.052;2023-02-18T01:43:36;2.35;;;1.50;;
65275;SDS011;51875;49.994;14.052;2023-02-18T01:44:52;2.53;;;1.50;;
65275;SDS011;51875;49.994;14.052;2023-02-18T01:46:15;1.90;;;1.30;;
65275;SDS011;51875;49.994;14.052;2023-02-18T01:47:33;2.30;;;1.20;;
65275;SDS011;51875;49.994;14.052;2023-02-18T01:48:56;2.08;;;1.42;;
65275;SDS011;51875;49.994;14.052;2023-02-18T01:50:14;2.70;;;1.33;;
65275;SDS011;51875;49.994;14.052;2023-02-18T01:51:32;2.50;;;1.40;;
65275;SDS011;51875;49.994;14.052;2023-02-18T01:52:51;1.95;;;1.10;;
65275;SDS011;51875;49.994;14.052;2023-02-18T01:54:17;2.65;;;1.58;;
65275;SDS011;51875;49.994;14.052;2023-02-18T01:55:34;1.90;;;1.30;;
65275;SDS011;51875;49.994;14.052;2023-02-18T01:56:56;1.85;;;1.30;;
65275;SDS011;51875;49.994;14.052;2023-02-18T01:58:15;1.75;;;1.40;;
65275;SDS011;51875;49.994;14.052;2023-02-18T01:59:33;3.15;;;1.40;;
65275;SDS011;51875;49.994;14.052;2023-02-18T02:00:53;3.97;;;1.40;;
65275;SDS011;51875;49.994;14.052;2023-02-18T02:02:13;3.00;;;1.45;;
65275;SDS011;51875;49.994;14.052;2023-02-18T02:03:31;1.77;;;1.40;;
65275;SDS011;51875;49.994;14.052;2023-02-18T02:04:47;1.75;;;1.30;;
65275;SDS011;51875;49.994;14.052;2023-02-18T02:06:05;2.33;;;1.25;;
65275;SDS011;51875;49.994;14.052;2023-02-18T02:07:30;1.60;;;1.17;;
65275;SDS011;51875;49.994;14.052;2023-02-18T02:08:46;1.38;;;1.10;;
65275;SDS011;51875;49.994;14.052;2023-02-18T02:10:04;1.60;;;1.02;;
65275;SDS011;51875;49.994;14.052;2023-02-18T02:13:18;2.42;;;1.20;;
65275;SDS011;51875;49.994;14.052;2023-02-18T02:16:43;1.77;;;1.20;;
65275;SDS011;51875;49.994;14.052;2023-02-18T02:22:13;3.63;;;1.38;;
65275;SDS011;51875;49.994;14.052;2023-02-18T02:27:13;1.73;;;1.30;;
65275;SDS011;51875;49.994;14.052;2023-02-18T02:28:55;1.20;;;1.10;;
65275;SDS011;51875;49.994;14.052;2023-02-18T02:31:57;2.35;;;1.20;;
65275;SDS011;51875;49.994;14.052;2023-02-18T02:35:10;2.25;;;1.13;;
65275;SDS011;51875;49.994;14.052;2023-02-18T02:36:43;1.42;;;1.10;;
65275;SDS011;51875;49.994;14.052;2023-02-18T02:41:19;1.15;;;0.88;;
65275;SDS011;51875;49.994;14.052;2023-02-18T02:44:18;2.13;;;1.08;;
65275;SDS011;51875;49.994;14.052;2023-02-18T02:47:18;1.63;;;1.05;;
65275;SDS011;51875;49.994;14.052;2023-02-18T02:48:57;2.78;;;1.20;;
65275;SDS011;51875;49.994;14.052;2023-02-18T02:54:35;1.48;;;1.20;;
65275;SDS011;51875;49.994;14.052;2023-02-18T02:55:44;1.75;;;1.13;;
65275;SDS011;51875;49.994;14.052;2023-02-18T02:57:41;2.05;;;1.20;;
65275;SDS011;51875;49.994;14.052;2023-02-18T02:58:44;2.97;;;1.00;;
65275;SDS011;51875;49.994;14.052;2023-02-18T03:00:07;2.20;;;1.40;;
65275;SDS011;51875;49.994;14.052;2023-02-18T03:01:32;2.05;;;1.00;;
65275;SDS011;51875;49.994;14.052;2023-02-18T03:03:13;1.55;;;1.25;;
65275;SDS011;51875;49.994;14.052;2023-02-18T03:04:53;2.53;;;1.30;;
65275;SDS011;51875;49.994;14.052;2023-02-18T03:08:07;1.70;;;1.30;;
65275;SDS011;51875;49.994;14.052;2023-02-18T03:11:13;1.30;;;1.02;;
65275;SDS011;51875;49.994;14.052;2023-02-18T03:12:35;2.42;;;1.10;;
65275;SDS011;51875;49.994;14.052;2023-02-18T03:14:08;2.58;;;1.20;;
65275;SDS011;51875;49.994;14.052;2023-02-18T03:15:49;1.60;;;1.10;;
65275;SDS011;51875;49.994;14.052;2023-02-18T03:17:29;1.85;;;1.23;;
65275;SDS011;51875;49.994;14.052;2023-02-18T03:18:51;2.42;;;1.35;;
65275;SDS011;51875;49.994;14.052;2023-02-18T03:20:30;1.30;;;0.93;;
65275;SDS011;51875;49.994;14.052;2023-02-18T03:21:51;2.55;;;1.20;;
65275;SDS011;51875;49.994;14.052;2023-02-18T03:23:31;1.70;;;1.30;;
65275;SDS011;51875;49.994;14.052;2023-02-18T03:24:53;1.23;;;0.90;;
65275;SDS011;51875;49.994;14.052;2023-02-18T03:26:11;1.90;;;1.10;;
65275;SDS011;51875;49.994;14.052;2023-02-18T03:27:49;2.45;;;1.13;;
65275;SDS011;51875;49.994;14.052;2023-02-18T03:29:08;1.77;;;1.20;;
65275;SDS011;51875;49.994;14.052;2023-02-18T03:30:27;1.70;;;1.10;;
65275;SDS011;51875;49.994;14.052;2023-02-18T03:31:56;2.88;;;1.05;;
65275;SDS011;51875;49.994;14.052;2023-02-18T03:33:16;1.70;;;1.10;;
65275;SDS011;51875;49.994;14.052;2023-02-18T03:34:41;1.60;;;1.10;;
65275;SDS011;51875;49.994;14.052;2023-02-18T03:36:02;2.55;;;1.30;;
65275;SDS011;51875;49.994;14.052;2023-02-18T03:37:18;1.65;;;1.30;;
65275;SDS011;51875;49.994;14.052;2023-02-18T03:40:17;1.73;;;1.30;;
65275;SDS011;51875;49.994;14.052;2023-02-18T03:41:34;1.83;;;1.30;;
65275;SDS011;51875;49.994;14.052;2023-02-18T03:42:49;2.10;;;1.70;;
65275;SDS011;51875;49.994;14.052;2023-02-18T03:44:06;1.90;;;1.20;;
65275;SDS011;51875;49.994;14.052;2023-02-18T03:45:23;1.40;;;1.13;;
65275;SDS011;51875;49.994;14.052;2023-02-18T03:46:40;1.90;;;1.23;;
65275;SDS011;51875;49.994;14.052;2023-02-18T03:47:58;1.75;;;1.40;;
65275;SDS011;51875;49.994;14.052;2023-02-18T03:49:13;1.40;;;1.17;;
65275;SDS011;51875;49.994;14.052;2023-02-18T03:50:30;1.67;;;1.10;;
65275;SDS011;51875;49.994;14.052;2023-02-18T03:51:45;1.63;;;1.20;;
65275;SDS011;51875;49.994;14.052;2023-02-18T03:53:01;1.73;;;1.20;;
65275;SDS011;51875;49.994;14.052;2023-02-18T03:54:17;2.05;;;1.15;;
65275;SDS011;51875;49.994;14.052;2023-02-18T03:55:33;2.30;;;0.95;;
65275;SDS011;51875;49.994;14.052;2023-02-18T03:56:48;1.52;;;1.27;;
65275;SDS011;51875;49.994;14.052;2023-02-18T03:58:04;1.70;;;1.30;;
65275;SDS011;51875;49.994;14.052;2023-02-18T03:59:19;2.03;;;1.40;;
65275;SDS011;51875;49.994;14.052;2023-02-18T04:00:35;1.60;;;1.23;;
65275;SDS011;51875;49.994;14.052;2023-02-18T04:01:51;3.17;;;1.48;;
65275;SDS011;51875;49.994;14.052;2023-02-18T04:03:07;2.00;;;1.40;;
65275;SDS011;51875;49.994;14.052;2023-02-18T04:04:23;1.83;;;1.50;;
65275;SDS011;51875;49.994;14.052;2023-02-18T04:05:38;1.85;;;1.20;;
65275;SDS011;51875;49.994;14.052;2023-02-18T04:06:54;2.75;;;1.23;;
65275;SDS011;51875;49.994;14.052;2023-02-18T04:08:10;2.25;;;1.33;;
65275;SDS011;51875;49.994;14.052;2023-02-18T04:09:25;1.50;;;1.20;;
65275;SDS011;51875;49.994;14.052;2023-02-18T04:10:41;2.38;;;1.73;;
65275;SDS011;51875;49.994;14.052;2023-02-18T04:11:56;2.40;;;1.23;;
65275;SDS011;51875;49.994;14.052;2023-02-18T04:13:12;1.73;;;1.40;;
65275;SDS011;51875;49.994;14.052;2023-02-18T04:14:27;1.85;;;1.35;;
65275;SDS011;51875;49.994;14.052;2023-02-18T04:15:44;2.17;;;1.40;;
65275;SDS011;51875;49.994;14.052;2023-02-18T04:16:59;2.63;;;1.38;;
65275;SDS011;51875;49.994;14.052;2023-02-18T04:18:15;3.08;;;1.48;;
65275;SDS011;51875;49.994;14.052;2023-02-18T04:19:31;3.72;;;1.60;;
65275;SDS011;51875;49.994;14.052;2023-02-18T04:20:47;1.98;;;1.25;;
65275;SDS011;51875;49.994;14.052;2023-02-18T04:22:03;1.50;;;1.20;;
65275;SDS011;51875;49.994;14.052;2023-02-18T04:23:19;1.75;;;1.40;;
65275;SDS011;51875;49.994;14.052;2023-02-18T04:24:35;2.05;;;1.40;;
65275;SDS011;51875;49.994;14.052;2023-02-18T04:25:50;1.85;;;1.30;;
65275;SDS011;51875;49.994;14.052;2023-02-18T04:27:06;1.88;;;1.30;;
65275;SDS011;51875;49.994;14.052;2023-02-18T04:28:21;4.40;;;1.45;;
65275;SDS011;51875;49.994;14.052;2023-02-18T04:29:37;2.40;;;1.27;;
65275;SDS011;51875;49.994;14.052;2023-02-18T04:30:52;3.08;;;1.48;;
65275;SDS011;51875;49.994;14.052;2023-02-18T04:32:08;1.55;;;1.40;;
65275;SDS011;51875;49.994;14.052;2023-02-18T04:33:24;2.03;;;1.50;;
65275;SDS011;51875;49.994;14.052;2023-02-18T04:34:39;2.85;;;1.38;;
65275;SDS011;51875;49.994;14.052;2023-02-18T04:35:55;2.10;;;1.10;;
65275;SDS011;51875;49.994;14.052;2023-02-18T04:37:11;2.53;;;1.23;;
65275;SDS011;51875;49.994;14.052;2023-02-18T04:38:26;1.65;;;1.20;;
65275;SDS011;51875;49.994;14.052;2023-02-18T04:39:42;4.07;;;1.55;;
65275;SDS011;51875;49.994;14.052;2023-02-18T04:40:58;1.55;;;1.10;;
65275;SDS011;51875;49.994;14.052;2023-02-18T04:42:13;1.88;;;1.33;;
65275;SDS011;51875;49.994;14.052;2023-02-18T04:43:29;1.60;;;1.38;;
65275;SDS011;51875;49.994;14.052;2023-02-18T04:44:44;2.15;;;1.20;;
65275;SDS011;51875;49.994;14.052;2023-02-18T04:46:00;1.85;;;1.23;;
65275;SDS011;51875;49.994;14.052;2023-02-18T04:47:16;1.83;;;1.35;;
65275;SDS011;51875;49.994;14.052;2023-02-18T04:48:31;1.63;;;1.10;;
65275;SDS011;51875;49.994;14.052;2023-02-18T04:49:49;2.38;;;1.55;;
65275;SDS011;51875;49.994;14.052;2023-02-18T04:51:05;1.98;;;1.40;;
65275;SDS011;51875;49.994;14.052;2023-02-18T04:52:21;3.55;;;1.40;;
65275;SDS011;51875;49.994;14.052;2023-02-18T04:53:37;1.58;;;1.10;;
65275;SDS011;51875;49.994;14.052;2023-02-18T04:54:52;1.75;;;1.40;;
65275;SDS011;51875;49.994;14.052;2023-02-18T04:56:08;1.63;;;1.10;;
65275;SDS011;51875;49.994;14.052;2023-02-18T04:57:24;1.77;;;1.27;;
65275;SDS011;51875;49.994;14.052;2023-02-18T04:58:39;1.23;;;1.10;;
65275;SDS011;51875;49.994;14.052;2023-02-18T04:59:55;1.58;;;1.23;;
65275;SDS011;51875;49.994;14.052;2023-02-18T05:01:10;2.05;;;1.40;;
65275;SDS011;51875;49.994;14.052;2023-02-18T05:02:27;2.08;;;1.25;;
65275;SDS011;51875;49.994;14.052;2023-02-18T05:03:42;2.33;;;1.25;;
65275;SDS011;51875;49.994;14.052;2023-02-18T05:05:00;2.08;;;1.23;;
65275;SDS011;51875;49.994;14.052;2023-02-18T05:06:16;1.70;;;1.38;;
65275;SDS011;51875;49.994;14.052;2023-02-18T05:07:31;2.00;;;1.52;;
65275;SDS011;51875;49.994;14.052;2023-02-18T05:08:47;2.58;;;1.25;;
65275;SDS011;51875;49.994;14.052;2023-02-18T05:10:03;1.50;;;1.30;;
65275;SDS011;51875;49.994;14.052;2023-02-18T05:11:19;1.92;;;1.30;;
65275;SDS011;51875;49.994;14.052;2023-02-18T05:12:35;1.95;;;1.17;;
65275;SDS011;51875;49.994;14.052;2023-02-18T05:13:50;2.42;;;1.20;;
65275;SDS011;51875;49.994;14.052;2023-02-18T05:15:06;1.50;;;1.30;;
65275;SDS011;51875;49.994;14.052;2023-02-18T05:16:22;2.08;;;1.00;;
65275;SDS011;51875;49.994;14.052;2023-02-18T05:17:38;1.67;;;1.10;;
65275;SDS011;51875;49.994;14.052;2023-02-18T05:18:54;1.58;;;1.30;;
65275;SDS011;51875;49.994;14.052;2023-02-18T05:20:09;2.15;;;1.30;;
65275;SDS011;51875;49.994;14.052;2023-02-18T05:21:25;2.47;;;1.52;;
65275;SDS011;51875;49.994;14.052;2023-02-18T05:22:41;1.27;;;1.00;;
65275;SDS011;51875;49.994;14.052;2023-02-18T05:23:57;2.08;;;1.40;;
65275;SDS011;51875;49.994;14.052;2023-02-18T05:25:13;2.20;;;1.30;;
65275;SDS011;51875;49.994;14.052;2023-02-18T05:26:28;1.63;;;1.10;;
65275;SDS011;51875;49.994;14.052;2023-02-18T05:27:44;1.35;;;1.02;;
65275;SDS011;51875;49.994;14.052;2023-02-18T05:28:59;2.72;;;1.33;;
65275;SDS011;51875;49.994;14.052;2023-02-18T05:30:15;2.00;;;1.10;;
65275;SDS011;51875;49.994;14.052;2023-02-18T05:31:31;2.03;;;1.20;;
65275;SDS011;51875;49.994;14.052;2023-02-18T05:32:47;1.90;;;1.30;;
65275;SDS011;51875;49.994;14.052;2023-02-18T05:34:02;1.73;;;1.20;;
65275;SDS011;51875;49.994;14.052;2023-02-18T05:35:18;1.45;;;1.13;;
65275;SDS011;51875;49.994;14.052;2023-02-18T05:36:34;2.70;;;1.30;;
65275;SDS011;51875;49.994;14.052;2023-02-18T05:37:49;1.90;;;1.30;;
65275;SDS011;51875;49.994;14.052;2023-02-18T05:39:05;1.27;;;1.00;;
65275;SDS011;51875;49.994;14.052;2023-02-18T05:40:20;1.70;;;1.10;;
65275;SDS011;51875;49.994;14.052;2023-02-18T05:41:36;1.13;;;0.93;;
65275;SDS011;51875;49.994;14.052;2023-02-18T05:42:52;3.13;;;1.50;;
65275;SDS011;51875;49.994;14.052;2023-02-18T05:44:07;1.17;;;1.00;;
65275;SDS011;51875;49.994;14.052;2023-02-18T05:45:42;2.05;;;1.48;;
65275;SDS011;51875;49.994;14.052;2023-02-18T05:47:02;2.78;;;1.48;;
65275;SDS011;51875;49.994;14.052;2023-02-18T05:49:36;2.08;;;1.35;;
65275;SDS011;51875;49.994;14.052;2023-02-18T05:50:52;2.42;;;1.40;;
65275;SDS011;51875;49.994;14.052;2023-02-18T05:52:08;2.33;;;1.00;;
65275;SDS011;51875;49.994;14.052;2023-02-18T05:53:25;3.42;;;0.88;;
65275;SDS011;51875;49.994;14.052;2023-02-18T05:54:41;2.72;;;1.20;;
65275;SDS011;51875;49.994;14.052;2023-02-18T05:55:56;1.75;;;1.30;;
65275;SDS011;51875;49.994;14.052;2023-02-18T05:57:12;1.30;;;1.10;;
65275;SDS011;51875;49.994;14.052;2023-02-18T05:58:29;1.25;;;1.15;;
65275;SDS011;51875;49.994;14.052;2023-02-18T05:59:45;2.58;;;1.10;;
65275;SDS011;51875;49.994;14.052;2023-02-18T06:01:00;2.58;;;1.95;;
65275;SDS011;51875;49.994;14.052;2023-02-18T06:02:16;2.53;;;1.13;;
65275;SDS011;51875;49.994;14.052;2023-02-18T06:03:32;2.00;;;1.35;;
65275;SDS011;51875;49.994;14.052;2023-02-18T06:04:48;1.05;;;0.90;;
65275;SDS011;51875;49.994;14.052;2023-02-18T06:06:04;2.72;;;1.20;;
65275;SDS011;51875;49.994;14.052;2023-02-18T06:07:19;1.80;;;1.20;;
65275;SDS011;51875;49.994;14.052;2023-02-18T06:08:35;1.95;;;1.00;;
65275;SDS011;51875;49.994;14.052;2023-02-18T06:09:51;1.40;;;1.20;;
65275;SDS011;51875;49.994;14.052;2023-02-18T06:11:07;1.80;;;1.10;;
65275;SDS011;51875;49.994;14.052;2023-02-18T06:12:23;1.83;;;1.10;;
65275;SDS011;51875;49.994;14.052;2023-02-18T06:13:39;1.15;;;0.82;;
65275;SDS011;51875;49.994;14.052;2023-02-18T06:14:55;1.35;;;1.20;;
65275;SDS011;51875;49.994;14.052;2023-02-18T06:16:10;1.55;;;1.17;;
65275;SDS011;51875;49.994;14.052;2023-02-18T06:17:26;1.92;;;1.20;;
65275;SDS011;51875;49.994;14.052;2023-02-18T06:18:42;2.72;;;1.10;;
65275;SDS011;51875;49.994;14.052;2023-02-18T06:19:57;5.07;;;0.98;;
65275;SDS011;51875;49.994;14.052;2023-02-18T06:21:13;1.27;;;0.98;;
65275;SDS011;51875;49.994;14.052;2023-02-18T06:22:29;1.05;;;0.90;;
65275;SDS011;51875;49.994;14.052;2023-02-18T06:23:45;1.67;;;1.00;;
65275;SDS011;51875;49.994;14.052;2023-02-18T06:25:01;3.80;;;1.35;;
65275;SDS011;51875;49.994;14.052;2023-02-18T06:26:16;1.23;;;1.02;;
65275;SDS011;51875;49.994;14.052;2023-02-18T06:27:33;1.75;;;1.23;;
65275;SDS011;51875;49.994;14.052;2023-02-18T06:28:48;2.47;;;1.10;;
65275;SDS011;51875;49.994;14.052;2023-02-18T06:30:04;1.63;;;1.30;;
65275;SDS011;51875;49.994;14.052;2023-02-18T06:31:20;2.10;;;1.08;;
65275;SDS011;51875;49.994;14.052;2023-02-18T06:32:36;2.90;;;1.40;;
65275;SDS011;51875;49.994;14.052;2023-02-18T06:33:52;1.65;;;1.10;;
65275;SDS011;51875;49.994;14.052;2023-02-18T06:35:07;2.33;;;1.10;;
65275;SDS011;51875;49.994;14.052;2023-02-18T06:36:23;2.05;;;1.10;;
65275;SDS011;51875;49.994;14.052;2023-02-18T06:37:38;1.15;;;0.98;;
65275;SDS011;51875;49.994;14.052;2023-02-18T06:38:54;1.67;;;1.10;;
65275;SDS011;51875;49.994;14.052;2023-02-18T06:40:11;1.63;;;1.08;;
65275;SDS011;51875;49.994;14.052;2023-02-18T06:41:27;3.05;;;1.38;;
65275;SDS011;51875;49.994;14.052;2023-02-18T06:42:43;1.15;;;1.00;;
65275;SDS011;51875;49.994;14.052;2023-02-18T06:43:59;2.35;;;1.20;;
65275;SDS011;51875;49.994;14.052;2023-02-18T06:45:14;2.42;;;1.30;;
65275;SDS011;51875;49.994;14.052;2023-02-18T06:46:30;1.90;;;1.02;;
65275;SDS011;51875;49.994;14.052;2023-02-18T06:47:46;1.52;;;1.05;;
65275;SDS011;51875;49.994;14.052;2023-02-18T06:49:02;2.47;;;1.00;;
65275;SDS011;51875;49.994;14.052;2023-02-18T06:50:18;2.55;;;1.17;;
65275;SDS011;51875;49.994;14.052;2023-02-18T06:51:34;2.13;;;1.10;;
65275;SDS011;51875;49.994;14.052;2023-02-18T06:52:49;5.22;;;1.58;;
65275;SDS011;51875;49.994;14.052;2023-02-18T06:54:05;1.42;;;0.95;;
65275;SDS011;51875;49.994;14.052;2023-02-18T06:55:21;2.42;;;1.20;;
65275;SDS011;51875;49.994;14.052;2023-02-18T06:56:36;1.35;;;1.20;;
65275;SDS011;51875;49.994;14.052;2023-02-18T06:57:52;3.05;;;1.40;;
65275;SDS011;51875;49.994;14.052;2023-02-18T06:59:08;1.73;;;1.08;;
65275;SDS011;51875;49.994;14.052;2023-02-18T07:00:24;1.73;;;1.20;;
65275;SDS011;51875;49.994;14.052;2023-02-18T07:01:40;1.67;;;1.00;;
65275;SDS011;51875;49.994;14.052;2023-02-18T07:02:55;1.90;;;1.23;;
65275;SDS011;51875;49.994;14.052;2023-02-18T07:04:11;1.55;;;1.27;;
65275;SDS011;51875;49.994;14.052;2023-02-18T07:05:29;2.20;;;1.17;;
65275;SDS011;51875;49.994;14.052;2023-02-18T07:06:46;1.98;;;1.30;;
65275;SDS011;51875;49.994;14.052;2023-02-18T07:08:01;3.13;;;1.55;;
65275;SDS011;51875;49.994;14.052;2023-02-18T07:09:17;3.60;;;1.60;;
65275;SDS011;51875;49.994;14.052;2023-02-18T07:10:33;2.35;;;1.40;;
65275;SDS011;51875;49.994;14.052;2023-02-18T07:11:48;2.72;;;1.30;;
65275;SDS011;51875;49.994;14.052;2023-02-18T07:13:04;3.72;;;1.50;;
65275;SDS011;51875;49.994;14.052;2023-02-18T07:14:20;2.80;;;1.52;;
65275;SDS011;51875;49.994;14.052;2023-02-18T07:15:36;2.15;;;1.17;;
65275;SDS011;51875;49.994;14.052;2023-02-18T07:16:52;3.50;;;1.20;;
65275;SDS011;51875;49.994;14.052;2023-02-18T07:18:08;2.55;;;1.52;;
65275;SDS011;51875;49.994;14.052;2023-02-18T07:19:24;2.92;;;1.38;;
65275;SDS011;51875;49.994;14.052;2023-02-18T07:20:39;0.93;;;0.82;;
65275;SDS011;51875;49.994;14.052;2023-02-18T07:21:54;2.35;;;1.30;;
65275;SDS011;51875;49.994;14.052;2023-02-18T07:23:11;4.63;;;1.60;;
65275;SDS011;51875;49.994;14.052;2023-02-18T07:24:27;3.05;;;1.38;;
65275;SDS011;51875;49.994;14.052;2023-02-18T07:25:43;3.25;;;2.25;;
65275;SDS011;51875;49.994;14.052;2023-02-18T07:26:58;2.53;;;0.98;;
65275;SDS011;51875;49.994;14.052;2023-02-18T07:28:14;2.70;;;1.00;;
65275;SDS011;51875;49.994;14.052;2023-02-18T07:29:30;2.10;;;1.20;;
65275;SDS011;51875;49.994;14.052;2023-02-18T07:30:45;2.75;;;1.48;;
65275;SDS011;51875;49.994;14.052;2023-02-18T07:32:01;1.75;;;1.13;;
65275;SDS011;51875;49.994;14.052;2023-02-18T07:33:17;2.22;;;1.00;;
65275;SDS011;51875;49.994;14.052;2023-02-18T07:34:32;3.28;;;1.15;;
65275;SDS011;51875;49.994;14.052;2023-02-18T07:35:55;2.42;;;1.60;;
65275;SDS011;51875;49.994;14.052;2023-02-18T07:37:12;1.70;;;1.25;;
65275;SDS011;51875;49.994;14.052;2023-02-18T07:38:27;1.55;;;1.00;;
65275;SDS011;51875;49.994;14.052;2023-02-18T07:39:44;2.88;;;1.02;;
65275;SDS011;51875;49.994;14.052;2023-02-18T07:40:59;2.85;;;1.00;;
65275;SDS011;51875;49.994;14.052;2023-02-18T07:42:15;1.60;;;1.10;;
65275;SDS011;51875;49.994;14.052;2023-02-18T07:43:31;1.50;;;0.90;;
65275;SDS011;51875;49.994;14.052;2023-02-18T07:44:46;2.17;;;1.20;;
65275;SDS011;51875;49.994;14.052;2023-02-18T07:46:04;1.63;;;1.17;;
65275;SDS011;51875;49.994;14.052;2023-02-18T07:47:20;1.95;;;1.40;;
65275;SDS011;51875;49.994;14.052;2023-02-18T07:48:37;1.67;;;1.10;;
65275;SDS011;51875;49.994;14.052;2023-02-18T07:49:52;5.35;;;1.58;;
65275;SDS011;51875;49.994;14.052;2023-02-18T07:51:08;3.65;;;1.60;;
65275;SDS011;51875;49.994;14.052;2023-02-18T07:52:25;3.03;;;1.23;;
65275;SDS011;51875;49.994;14.052;2023-02-18T07:53:41;2.47;;;1.20;;
65275;SDS011;51875;49.994;14.052;2023-02-18T07:54:57;22.58;;;3.03;;
65275;SDS011;51875;49.994;14.052;2023-02-18T07:56:12;17.33;;;1.45;;
65275;SDS011;51875;49.994;14.052;2023-02-18T07:57:28;2.30;;;1.00;;
65275;SDS011;51875;49.994;14.052;2023-02-18T07:58:44;3.33;;;0.90;;
65275;SDS011;51875;49.994;14.052;2023-02-18T07:59:59;1.42;;;1.00;;
65275;SDS011;51875;49.994;14.052;2023-02-18T08:01:15;1.27;;;1.00;;
65275;SDS011;51875;49.994;14.052;2023-02-18T08:02:31;1.70;;;1.20;;
65275;SDS011;51875;49.994;14.052;2023-02-18T08:03:46;2.35;;;0.80;;
65275;SDS011;51875;49.994;14.052;2023-02-18T08:05:02;5.75;;;1.20;;
65275;SDS011;51875;49.994;14.052;2023-02-18T08:06:19;1.30;;;1.05;;
65275;SDS011;51875;49.994;14.052;2023-02-18T08:07:39;1.10;;;0.90;;
65275;SDS011;51875;49.994;14.052;2023-02-18T08:08:55;1.67;;;1.00;;
65275;SDS011;51875;49.994;14.052;2023-02-18T08:10:10;1.13;;;0.82;;
65275;SDS011;51875;49.994;14.052;2023-02-18T08:11:26;1.88;;;0.88;;